Time;durP1;ratioP1;P1;durP2;ratioP2;P2;SDS_P1;SDS_P2;PMS_P1;PMS_P2;Temp;Humidity;BMP_temperature;BMP_pressure;BME280_temperature;BME280_humidity;BME280_pressure;Samples;Min_cycle;Max_cycle;Signal;HPM_P1;HPM_P2
2022/11/17 00:00:10;;;;;;;2.90;0.70;;;13.80;99.90;14.00;97872.00;;;;337334;28;91935;-94
2022/11/17 00:00:22;;;;;;;2.85;0.77;;;13.80;99.90;14.00;97876.00;;;;337722;28;83843;-94
2022/11/17 00:00:34;;;;;;;2.72;0.77;;;13.80;99.90;14.00;97860.00;;;;335859;28;92533;-95
2022/11/17 00:00:45;;;;;;;3.88;0.75;;;13.80;99.90;14.00;97874.00;;;;338985;28;83837;-95
2022/11/17 00:01:07;;;;;;;2.97;0.70;;;13.80;99.90;14.00;97876.00;;;;338706;28;91688;-93
2022/11/17 00:01:20;;;;;;;2.45;0.47;;;13.80;99.90;14.00;97873.00;;;;337611;28;84699;-94
2022/11/17 00:01:32;;;;;;;2.53;0.60;;;13.80;99.90;13.90;97870.00;;;;338637;28;91825;-94
2022/11/17 00:01:44;;;;;;;2.72;0.88;;;13.70;99.90;13.90;97870.00;;;;337712;28;84829;-95
2022/11/17 00:01:56;;;;;;;4.28;1.27;;;13.70;99.90;14.00;97878.00;;;;340025;28;90700;-94
2022/11/17 00:02:08;;;;;;;5.82;1.38;;;13.70;99.90;13.90;97871.00;;;;337704;28;83762;-94
2022/11/17 00:02:19;;;;;;;3.75;0.85;;;13.70;99.90;13.90;97872.00;;;;338719;28;91847;-94
2022/11/17 00:02:31;;;;;;;4.75;0.90;;;13.70;99.90;14.00;97880.00;;;;336383;28;84640;-93
2022/11/17 00:02:44;;;;;;;3.67;0.70;;;13.70;99.90;14.00;97884.00;;;;338705;28;92099;-93
2022/11/17 00:02:56;;;;;;;3.67;0.55;;;13.70;99.90;14.00;97871.00;;;;339145;28;83424;-93
2022/11/17 00:03:14;;;;;;;3.65;0.57;;;13.80;99.90;14.00;97869.00;;;;337358;28;91496;-95
2022/11/17 00:03:26;;;;;;;2.90;0.80;;;13.80;99.90;14.00;97872.00;;;;341617;28;85081;-94
2022/11/17 00:03:38;;;;;;;3.30;0.80;;;13.80;99.90;14.00;97869.00;;;;335896;28;92076;-94
2022/11/17 00:03:50;;;;;;;3.70;0.90;;;13.80;99.90;14.00;97878.00;;;;338927;28;83911;-94
2022/11/17 00:04:02;;;;;;;3.97;0.75;;;13.80;99.90;14.00;97866.00;;;;337386;28;92715;-94
2022/11/17 00:04:14;;;;;;;3.90;0.90;;;13.80;99.90;14.00;97881.00;;;;340357;28;83725;-94
2022/11/17 00:04:29;;;;;;;4.15;0.90;;;13.80;99.90;14.00;97875.00;;;;339975;28;90565;-94
2022/11/17 00:04:41;;;;;;;2.88;0.70;;;13.80;99.90;14.00;97875.00;;;;338931;28;85028;-94
2022/11/17 00:04:55;;;;;;;2.53;0.60;;;13.80;99.90;14.00;97870.00;;;;340007;28;91806;-95
2022/11/17 00:05:08;;;;;;;6.13;0.65;;;13.80;99.90;13.90;97877.00;;;;340317;28;85040;-94
2022/11/17 00:05:20;;;;;;;6.13;0.70;;;13.80;99.90;13.90;97874.00;;;;336021;28;91681;-94
2022/11/17 00:05:34;;;;;;;3.65;0.40;;;13.80;99.90;14.00;97887.00;;;;340227;28;83740;-94
2022/11/17 00:05:46;;;;;;;1.10;0.40;;;13.80;99.90;13.90;97882.00;;;;337408;28;90492;-94
2022/11/17 00:06:03;;;;;;;1.70;0.38;;;13.80;99.90;13.90;97891.00;;;;340406;28;85118;-94
2022/11/17 00:06:15;;;;;;;2.72;0.50;;;13.80;99.90;13.90;97884.00;;;;337360;28;90672;-94
2022/11/17 00:06:27;;;;;;;2.85;0.50;;;13.80;99.90;14.00;97886.00;;;;337693;28;84504;-94
2022/11/17 00:06:39;;;;;;;3.97;0.60;;;13.80;99.90;14.00;97884.00;;;;338484;28;92242;-95
2022/11/17 00:06:51;;;;;;;4.25;0.70;;;13.80;99.90;14.00;97879.00;;;;336322;28;83842;-94
2022/11/17 00:07:03;;;;;;;4.00;0.60;;;13.80;99.90;13.90;97863.00;;;;339840;28;91416;-95
2022/11/17 00:07:15;;;;;;;4.22;0.55;;;13.80;99.90;13.90;97877.00;;;;338928;28;84238;-94
2022/11/17 00:07:26;;;;;;;2.97;0.52;;;13.70;99.90;13.80;97877.00;;;;338523;28;90622;-94
2022/11/17 00:07:39;;;;;;;3.00;0.68;;;13.70;99.90;13.90;97882.00;;;;337587;28;84747;-93
2022/11/17 00:07:50;;;;;;;2.30;0.68;;;13.70;99.90;13.90;97883.00;;;;337344;28;91040;-94
2022/11/17 00:08:02;;;;;;;2.10;0.68;;;13.70;99.90;13.90;97875.00;;;;339071;28;84881;-94
2022/11/17 00:08:14;;;;;;;1.85;0.65;;;13.70;99.90;13.80;97878.00;;;;337290;28;92135;-94
2022/11/17 00:08:26;;;;;;;3.63;0.85;;;13.70;99.90;13.90;97888.00;;;;337651;28;84393;-94
2022/11/17 00:08:38;;;;;;;4.22;0.95;;;13.80;99.90;14.00;97889.00;;;;339987;28;92173;-94
2022/11/17 00:08:51;;;;;;;3.60;0.80;;;13.70;99.90;14.00;97885.00;;;;340401;28;85050;-94
2022/11/17 00:09:03;;;;;;;1.88;0.75;;;13.70;99.90;14.00;97882.00;;;;338697;28;92523;-94
2022/11/17 00:09:16;;;;;;;2.10;1.00;;;13.70;99.90;14.00;97879.00;;;;340066;28;83523;-94
2022/11/17 00:09:28;;;;;;;2.83;0.98;;;13.80;99.90;14.10;97888.00;;;;342740;28;92204;-94
2022/11/17 00:09:40;;;;;;;2.53;0.73;;;13.70;99.90;14.00;97886.00;;;;338917;28;82698;-94
2022/11/17 00:09:52;;;;;;;2.78;0.55;;;13.80;99.90;14.00;97882.00;;;;338356;28;90867;-94
2022/11/17 00:10:05;;;;;;;3.45;0.70;;;13.80;99.90;13.90;97877.00;;;;337785;28;84346;-94
2022/11/17 00:10:17;;;;;;;3.78;0.70;;;13.80;99.90;13.90;97882.00;;;;341268;28;91637;-94
2022/11/17 00:10:28;;;;;;;3.88;0.45;;;13.80;99.90;14.00;97877.00;;;;339025;28;85079;-94
2022/11/17 00:10:40;;;;;;;2.15;0.40;;;13.80;99.90;14.00;97873.00;;;;338584;28;91670;-93
2022/11/17 00:10:52;;;;;;;2.10;0.57;;;13.80;99.90;14.00;97875.00;;;;337700;28;84786;-95
2022/11/17 00:11:04;;;;;;;2.67;0.63;;;13.80;99.90;14.00;97880.00;;;;337358;28;92598;-94
2022/11/17 00:11:17;;;;;;;4.13;0.93;;;13.80;99.90;14.00;97883.00;;;;336287;28;83452;-94
2022/11/17 00:14:31;;;;;;;4.15;0.80;;;13.80;99.90;14.00;97883.00;;;;336051;28;91829;-93
2022/11/17 00:14:31;;;;;;;6.22;1.00;;;13.80;99.90;14.00;97889.00;;;;337558;28;84476;-94
2022/11/17 00:14:43;;;;;;;2.78;0.70;;;13.80;99.90;14.10;97887.00;;;;338331;28;89629;-94
2022/11/17 00:14:55;;;;;;;2.33;0.70;;;13.80;99.90;14.10;97884.00;;;;335020;29;83510;-94
2022/11/17 00:15:07;;;;;;;3.70;0.80;;;13.80;99.90;14.10;97891.00;;;;337212;28;93175;-95
2022/11/17 00:15:19;;;;;;;4.13;0.90;;;13.80;99.90;14.10;97893.00;;;;334978;29;83872;-93
2022/11/17 00:15:31;;;;;;;4.30;0.90;;;13.80;99.90;14.10;97891.00;;;;338570;28;91949;-93
2022/11/17 00:15:43;;;;;;;2.38;0.70;;;13.90;99.90;14.10;97885.00;;;;339093;28;83428;-94
2022/11/17 00:15:55;;;;;;;2.88;0.93;;;13.90;99.90;14.10;97887.00;;;;339986;28;90358;-94
2022/11/17 00:16:07;;;;;;;3.42;0.88;;;13.80;99.90;14.10;97885.00;;;;336496;28;83829;-94
2022/11/17 00:16:19;;;;;;;3.25;0.98;;;13.80;99.90;14.10;97882.00;;;;336887;28;90746;-95
2022/11/17 00:16:31;;;;;;;3.30;0.90;;;13.90;99.90;14.10;97888.00;;;;336214;28;84507;-94
2022/11/17 00:16:48;;;;;;;3.22;0.75;;;13.90;99.90;14.00;97891.00;;;;339769;28;91949;-94
2022/11/17 00:17:04;;;;;;;1.85;0.40;;;13.90;99.90;14.00;97878.00;;;;335078;29;83495;-95
2022/11/17 00:17:15;;;;;;;3.00;0.77;;;13.90;99.90;14.00;97881.00;;;;339842;28;93997;-95
2022/11/17 00:17:27;;;;;;;3.72;1.05;;;13.90;99.90;14.00;97882.00;;;;336349;28;84437;-94
2022/11/17 00:17:39;;;;;;;2.72;0.80;;;13.90;99.90;14.00;97888.00;;;;338585;28;91691;-95
2022/11/17 00:21:27;;;;;;;2.38;0.70;;;13.80;99.90;14.00;97877.00;;;;335743;28;91920;-94
2022/11/17 00:21:39;;;;;;;2.47;0.60;;;13.80;99.90;14.00;97874.00;;;;337510;28;85395;-94
2022/11/17 00:21:51;;;;;;;3.05;0.60;;;13.80;99.90;14.10;97881.00;;;;337074;28;91869;-94
2022/11/17 00:22:03;;;;;;;2.25;0.52;;;13.80;99.90;14.10;97870.00;;;;339051;28;83556;-94
2022/11/17 00:22:17;;;;;;;2.38;0.60;;;13.80;99.90;14.10;97868.00;;;;334697;29;90560;-94
2022/11/17 00:22:31;;;;;;;3.95;0.93;;;13.80;99.90;14.10;97876.00;;;;337501;28;85134;-94
2022/11/17 00:22:43;;;;;;;4.03;0.90;;;13.80;99.90;14.10;97885.00;;;;334810;29;90412;-94
2022/11/17 00:22:55;;;;;;;2.80;0.55;;;13.80;99.90;14.00;97873.00;;;;335110;29;83421;-95
2022/11/17 00:23:07;;;;;;;2.30;0.50;;;13.80;99.90;14.00;97877.00;;;;334659;29;92957;-95
2022/11/17 00:23:18;;;;;;;3.22;0.52;;;13.80;99.90;13.90;97872.00;;;;336363;28;84976;-94
2022/11/17 00:23:48;;;;;;;3.97;0.50;;;13.80;99.90;14.00;97885.00;;;;333279;29;93171;-94
2022/11/17 00:24:01;;;;;;;4.30;0.60;;;13.80;99.90;13.90;97877.00;;;;336111;28;84488;-93
2022/11/17 00:24:15;;;;;;;4.43;0.60;;;13.80;99.90;13.90;97884.00;;;;337351;28;91804;-94
2022/11/17 00:24:27;;;;;;;3.45;0.52;;;13.80;99.90;13.90;97881.00;;;;337485;28;83900;-94
2022/11/17 00:24:39;;;;;;;2.15;0.40;;;13.80;99.90;14.00;97875.00;;;;335940;28;91175;-95
2022/11/17 00:24:50;;;;;;;1.90;0.52;;;13.80;99.90;14.00;97876.00;;;;337689;28;84044;-94
2022/11/17 00:25:02;;;;;;;2.08;0.60;;;13.80;99.90;14.10;97887.00;;;;334557;29;91006;-94
2022/11/17 00:25:14;;;;;;;2.42;0.57;;;13.80;99.90;14.00;97876.00;;;;337624;28;83740;-94
2022/11/17 00:25:26;;;;;;;2.75;0.50;;;13.80;99.90;14.00;97877.00;;;;337066;28;91522;-94
2022/11/17 00:25:38;;;;;;;2.55;0.43;;;13.80;99.90;14.00;97883.00;;;;340304;28;84776;-94
2022/11/17 00:25:50;;;;;;;2.95;0.70;;;13.80;99.90;14.00;97877.00;;;;335982;28;91985;-93
2022/11/17 00:26:02;;;;;;;3.17;0.98;;;13.80;99.90;14.00;97867.00;;;;338970;28;83813;-94
2022/11/17 00:26:21;;;;;;;3.65;0.85;;;13.80;99.90;14.10;97870.00;;;;337235;28;91207;-94
2022/11/17 00:26:34;;;;;;;4.97;0.63;;;13.80;99.90;14.20;97871.00;;;;337510;28;84567;-95
2022/11/17 00:27:01;;;;;;;5.22;0.82;;;13.80;99.90;14.10;97872.00;;;;336028;28;92212;-94
2022/11/17 00:27:13;;;;;;;3.33;0.50;;;13.80;99.90;14.10;97873.00;;;;337587;28;83802;-93
2022/11/17 00:27:25;;;;;;;3.47;0.47;;;13.80;99.90;14.10;97870.00;;;;334638;29;90950;-94
2022/11/17 00:27:36;;;;;;;3.75;0.52;;;13.80;99.90;14.10;97864.00;;;;336332;28;84798;-94
2022/11/17 00:27:48;;;;;;;4.88;0.90;;;13.80;99.90;14.20;97861.00;;;;334485;29;92033;-94
2022/11/17 00:28:00;;;;;;;5.05;1.10;;;13.90;99.90;14.00;97869.00;;;;333664;29;83992;-93
2022/11/17 00:28:12;;;;;;;4.88;1.38;;;13.90;99.90;14.00;97866.00;;;;334655;29;91489;-94
2022/11/17 00:28:24;;;;;;;2.72;1.10;;;13.80;99.90;14.10;97867.00;;;;337686;28;83808;-94
2022/11/17 00:28:35;;;;;;;2.83;0.68;;;13.80;99.90;14.00;97866.00;;;;333365;29;92054;-94
2022/11/17 00:28:57;;;;;;;2.92;0.60;;;13.80;99.90;14.00;97861.00;;;;337675;28;85345;-94
2022/11/17 00:29:09;;;;;;;2.53;0.93;;;13.80;99.90;14.00;97867.00;;;;334776;29;90717;-94
2022/11/17 00:29:21;;;;;;;3.47;0.90;;;13.80;99.90;14.00;97865.00;;;;335075;29;84920;-94
2022/11/17 00:29:33;;;;;;;3.80;0.80;;;13.90;99.90;14.00;97865.00;;;;334787;29;91935;-94
2022/11/17 00:29:49;;;;;;;2.63;0.70;;;13.80;99.90;14.10;97868.00;;;;335009;29;85229;-94
2022/11/17 00:30:01;;;;;;;3.78;1.00;;;13.90;99.90;14.00;97865.00;;;;333610;29;90481;-94
2022/11/17 00:34:03;;;;;;;3.75;0.93;;;13.80;99.90;13.90;97868.00;;;;336571;28;83921;-94
2022/11/17 00:34:03;;;;;;;4.10;1.15;;;13.90;99.90;14.00;97851.00;;;;336067;28;90450;-94
2022/11/17 00:34:20;;;;;;;2.80;0.50;;;13.80;99.90;14.00;97850.00;;;;332615;29;84403;-94
2022/11/17 00:34:32;;;;;;;4.00;0.57;;;13.80;99.90;14.00;97846.00;;;;335917;28;90075;-93
2022/11/17 00:34:44;;;;;;;3.28;0.73;;;13.80;99.90;14.00;97855.00;;;;335041;29;83585;-94
2022/11/17 00:34:55;;;;;;;2.78;0.80;;;13.80;99.90;14.00;97850.00;;;;334764;29;91791;-94
2022/11/17 00:35:07;;;;;;;2.28;0.77;;;13.80;99.90;14.10;97849.00;;;;333740;29;83859;-93
2022/11/17 00:35:19;;;;;;;3.10;0.60;;;13.80;99.90;14.10;97847.00;;;;336071;28;91607;-94
2022/11/17 00:35:31;;;;;;;5.22;0.70;;;13.80;99.90;14.10;97848.00;;;;332669;29;84026;-94
2022/11/17 00:35:44;;;;;;;5.35;0.82;;;13.80;99.90;14.10;97841.00;;;;337412;28;90864;-93
2022/11/17 00:35:59;;;;;;;3.53;0.60;;;13.90;99.90;14.10;97842.00;;;;336750;28;83853;-94
2022/11/17 00:36:11;;;;;;;2.55;0.50;;;13.90;99.90;14.10;97844.00;;;;336393;28;91172;-94
2022/11/17 00:36:24;;;;;;;2.80;0.60;;;13.90;99.90;14.10;97849.00;;;;334275;29;83247;-94
2022/11/17 00:36:50;;;;;;;3.67;0.70;;;13.90;99.90;14.00;97844.00;;;;336570;28;91249;-93
2022/11/17 00:37:02;;;;;;;4.22;0.63;;;13.90;99.90;14.10;97852.00;;;;335255;29;85434;-93
2022/11/17 00:37:14;;;;;;;5.70;0.70;;;13.90;99.90;14.20;97859.00;;;;337827;28;88899;-94
2022/11/17 00:37:27;;;;;;;4.63;0.65;;;13.90;99.90;14.10;97861.00;;;;334195;29;85055;-94
2022/11/17 00:38:14;;;;;;;3.47;0.63;;;13.90;99.90;14.00;97859.00;;;;336476;28;90989;-94
2022/11/17 00:38:14;;;;;;;2.45;0.60;;;13.90;99.90;14.00;97864.00;;;;338125;28;83804;-94
2022/11/17 00:38:26;;;;;;;1.98;0.50;;;13.80;99.90;14.10;97861.00;;;;335098;29;91862;-94
2022/11/17 00:38:37;;;;;;;1.90;0.65;;;13.90;99.90;14.00;97855.00;;;;335462;29;83434;-94
2022/11/17 00:38:49;;;;;;;1.77;0.70;;;13.80;99.90;14.10;97854.00;;;;335192;29;92198;-94
2022/11/17 00:39:01;;;;;;;2.92;1.00;;;13.90;99.90;14.10;97847.00;;;;338239;28;83395;-94
2022/11/17 00:39:14;;;;;;;2.88;0.70;;;13.80;99.90;14.20;97855.00;;;;335073;28;91101;-94
2022/11/17 00:39:26;;;;;;;2.75;0.70;;;13.90;99.90;14.10;97860.00;;;;335517;29;85590;-94
2022/11/17 00:39:38;;;;;;;2.80;0.60;;;13.90;99.90;14.10;97863.00;;;;336515;28;90350;-94
2022/11/17 00:39:49;;;;;;;2.28;0.47;;;13.90;99.90;14.10;97869.00;;;;336757;28;83509;-94
2022/11/17 00:40:05;;;;;;;1.80;0.50;;;13.90;99.90;14.20;97873.00;;;;334784;29;91964;-94
2022/11/17 00:40:17;;;;;;;2.03;0.55;;;13.90;99.90;14.10;97866.00;;;;336408;28;83406;-95
2022/11/17 00:40:29;;;;;;;2.65;0.70;;;13.90;99.90;14.10;97865.00;;;;336040;28;91143;-94
2022/11/17 00:40:41;;;;;;;3.38;0.90;;;13.90;99.90;14.10;97869.00;;;;334959;29;83716;-94
2022/11/17 00:40:53;;;;;;;3.50;0.80;;;13.90;99.90;14.00;97871.00;;;;337344;28;92627;-94
2022/11/17 00:41:05;;;;;;;2.47;0.45;;;13.90;99.90;14.00;97876.00;;;;336334;28;84777;-94
2022/11/17 00:41:16;;;;;;;1.80;0.40;;;13.90;99.90;14.00;97863.00;;;;335985;28;92664;-94
2022/11/17 00:41:28;;;;;;;2.13;0.43;;;13.90;99.90;14.00;97874.00;;;;336265;28;85329;-94
2022/11/17 00:41:40;;;;;;;3.30;0.50;;;13.90;99.90;14.10;97874.00;;;;334672;29;91621;-94
2022/11/17 00:41:52;;;;;;;3.10;0.60;;;13.90;99.90;14.10;97880.00;;;;336308;28;83552;-93
2022/11/17 00:42:04;;;;;;;2.33;0.60;;;13.90;99.90;14.10;97884.00;;;;334654;29;89806;-93
2022/11/17 00:42:16;;;;;;;2.30;0.63;;;13.90;99.90;14.10;97877.00;;;;337600;28;84427;-94
2022/11/17 00:42:28;;;;;;;2.72;0.60;;;13.90;99.90;14.10;97876.00;;;;336031;28;92187;-94
2022/11/17 00:42:39;;;;;;;2.70;0.60;;;13.90;99.90;14.10;97884.00;;;;335024;29;84163;-94
2022/11/17 00:42:51;;;;;;;2.78;0.50;;;13.90;99.90;14.10;97872.00;;;;334658;29;92002;-94
2022/11/17 00:43:03;;;;;;;3.05;0.57;;;13.90;99.90;14.00;97884.00;;;;336348;28;84420;-94
2022/11/17 00:43:15;;;;;;;4.07;0.57;;;13.90;99.90;14.10;97884.00;;;;334611;29;92167;-95
2022/11/17 00:43:27;;;;;;;3.65;0.52;;;13.90;99.90;14.10;97887.00;;;;334716;29;84828;-94
2022/11/17 00:43:38;;;;;;;3.97;0.70;;;13.90;99.90;14.00;97878.00;;;;334691;29;91177;-94
2022/11/17 00:43:50;;;;;;;4.68;0.80;;;13.90;99.90;14.00;97878.00;;;;333690;29;84243;-94
2022/11/17 00:44:02;;;;;;;4.38;0.57;;;13.90;99.90;14.00;97882.00;;;;333404;29;90834;-94
2022/11/17 00:44:14;;;;;;;3.60;0.52;;;13.90;99.90;14.00;97875.00;;;;336426;28;83625;-94
2022/11/17 00:44:26;;;;;;;2.67;0.60;;;13.90;99.90;14.10;97883.00;;;;334723;29;90300;-94
2022/11/17 00:44:38;;;;;;;2.40;0.60;;;13.90;99.90;14.00;97874.00;;;;334966;29;83656;-94
2022/11/17 00:44:50;;;;;;;3.65;0.50;;;13.90;99.90;14.10;97877.00;;;;333430;29;91394;-93
2022/11/17 00:45:02;;;;;;;3.30;0.40;;;13.90;99.90;14.10;97880.00;;;;336294;28;85039;-95
2022/11/17 00:45:14;;;;;;;3.10;0.40;;;13.90;99.90;14.10;97881.00;;;;334474;29;91700;-94
2022/11/17 00:45:29;;;;;;;2.33;0.40;;;13.90;99.90;14.10;97883.00;;;;336263;28;83408;-94
2022/11/17 00:45:41;;;;;;;6.20;0.50;;;13.90;99.90;14.10;97880.00;;;;334625;29;93000;-94
2022/11/17 00:45:53;;;;;;;5.95;0.60;;;13.90;99.90;14.10;97888.00;;;;336289;28;84184;-94
2022/11/17 00:46:04;;;;;;;5.53;0.55;;;13.90;99.90;14.20;97886.00;;;;336001;28;91430;-94
2022/11/17 00:46:16;;;;;;;1.50;0.40;;;13.90;99.90;14.20;97880.00;;;;336202;28;83624;-94
2022/11/17 00:46:28;;;;;;;1.60;0.40;;;13.90;99.90;14.20;97874.00;;;;335925;28;92179;-94
2022/11/17 00:46:40;;;;;;;1.65;0.40;;;13.90;99.90;14.10;97887.00;;;;336376;28;83225;-94
2022/11/17 00:46:52;;;;;;;1.92;0.35;;;13.90;99.90;14.20;97881.00;;;;334448;29;90918;-95
2022/11/17 00:47:04;;;;;;;2.78;0.40;;;13.90;99.90;14.10;97873.00;;;;336177;28;84132;-94
2022/11/17 00:47:16;;;;;;;3.15;0.45;;;13.90;99.90;14.10;97870.00;;;;333190;29;91283;-94
2022/11/17 00:47:28;;;;;;;3.15;0.85;;;13.90;99.90;14.20;97872.00;;;;336200;28;83436;-94
2022/11/17 00:47:41;;;;;;;4.25;1.00;;;13.90;99.90;14.10;97872.00;;;;334374;29;91872;-94
2022/11/17 00:47:53;;;;;;;4.03;0.75;;;13.90;99.90;14.10;97874.00;;;;333658;29;84234;-95
2022/11/17 00:48:05;;;;;;;3.70;0.70;;;13.90;99.90;14.10;97862.00;;;;334682;29;90846;-93
2022/11/17 00:48:17;;;;;;;2.72;0.70;;;13.90;99.90;14.10;97873.00;;;;338851;28;83815;-94
2022/11/17 00:48:29;;;;;;;2.85;0.90;;;13.90;99.90;14.20;97856.00;;;;337245;28;91232;-94
2022/11/17 00:48:40;;;;;;;5.68;1.20;;;14.00;99.90;14.10;97856.00;;;;334935;29;84269;-94
2022/11/17 00:48:52;;;;;;;5.88;1.02;;;13.90;99.90;14.20;97870.00;;;;334490;29;91446;-94
2022/11/17 00:49:05;;;;;;;4.38;0.73;;;13.90;99.90;14.20;97864.00;;;;332471;29;85173;-94
2022/11/17 00:49:18;;;;;;;3.03;0.60;;;14.00;99.90;14.20;97863.00;;;;334689;29;91578;-94
2022/11/17 00:49:30;;;;;;;3.25;0.77;;;13.90;99.90;14.20;97857.00;;;;332287;29;82700;-94
2022/11/17 00:49:42;;;;;;;3.38;0.55;;;14.00;99.90;14.20;97865.00;;;;334587;29;93250;-94
2022/11/17 00:49:54;;;;;;;3.28;0.60;;;14.00;99.90;14.30;97859.00;;;;334997;29;85721;-94
2022/11/17 00:50:06;;;;;;;2.15;0.70;;;14.00;99.90;14.30;97863.00;;;;334720;29;91866;-94
2022/11/17 00:50:18;;;;;;;1.77;0.65;;;14.00;99.90;14.30;97866.00;;;;335028;29;84915;-94
2022/11/17 00:50:30;;;;;;;2.13;0.70;;;14.00;99.90;14.30;97859.00;;;;334612;29;90727;-94
2022/11/17 00:50:42;;;;;;;2.08;0.60;;;14.00;99.90;14.20;97860.00;;;;335099;29;83754;-94
2022/11/17 00:50:54;;;;;;;3.08;0.80;;;14.00;99.90;14.30;97865.00;;;;333438;29;91866;-93
2022/11/17 00:51:06;;;;;;;2.88;0.60;;;14.00;99.90;14.30;97868.00;;;;334804;29;82718;-94
2022/11/17 00:51:18;;;;;;;3.22;0.57;;;14.00;99.90;14.20;97858.00;;;;335725;28;90823;-93
2022/11/17 00:51:30;;;;;;;2.30;0.40;;;14.00;99.90;14.30;97866.00;;;;335024;29;83850;-95
2022/11/17 00:51:42;;;;;;;1.73;0.60;;;14.00;99.90;14.20;97869.00;;;;332037;29;92325;-94
2022/11/17 00:51:54;;;;;;;1.48;0.50;;;14.00;99.90;14.30;97872.00;;;;335965;28;85001;-94
2022/11/17 00:52:06;;;;;;;2.10;0.50;;;14.00;99.90;14.20;97855.00;;;;333275;29;92356;-95
2022/11/17 00:52:18;;;;;;;2.00;0.60;;;14.00;99.90;14.20;97866.00;;;;336268;28;83979;-94
2022/11/17 00:52:29;;;;;;;1.77;0.55;;;14.00;99.90;14.20;97872.00;;;;337304;28;90823;-94
2022/11/17 00:52:41;;;;;;;1.23;0.43;;;14.00;99.90;14.30;97864.00;;;;336436;28;83454;-93
2022/11/17 00:52:53;;;;;;;1.35;0.40;;;14.00;99.90;14.30;97869.00;;;;337329;28;91120;-94
2022/11/17 00:53:05;;;;;;;1.38;0.40;;;14.00;99.90;14.20;97863.00;;;;340360;28;85259;-94
2022/11/17 00:53:17;;;;;;;2.10;0.52;;;14.00;99.90;14.30;97866.00;;;;337275;28;90681;-94
2022/11/17 00:53:29;;;;;;;3.40;0.90;;;14.00;99.90;14.10;97859.00;;;;340230;28;84912;-94
2022/11/17 00:53:40;;;;;;;4.10;1.27;;;14.00;99.90;14.10;97862.00;;;;333362;28;91564;-94
2022/11/17 00:53:52;;;;;;;3.90;1.20;;;14.00;99.90;14.10;97856.00;;;;340188;28;85258;-94
2022/11/17 00:54:05;;;;;;;2.30;0.70;;;14.00;99.90;14.10;97863.00;;;;338659;28;91081;-95
2022/11/17 00:54:16;;;;;;;4.10;0.77;;;14.00;99.90;14.20;97857.00;;;;336324;28;83730;-94
2022/11/17 00:54:28;;;;;;;3.20;0.65;;;14.00;99.90;14.10;97856.00;;;;335908;28;90665;-94
2022/11/17 00:54:40;;;;;;;1.23;0.40;;;14.00;99.90;14.20;97847.00;;;;338954;28;83662;-95
2022/11/17 00:54:52;;;;;;;1.52;0.40;;;14.00;99.90;14.20;97846.00;;;;335673;28;91885;-95
2022/11/17 00:55:05;;;;;;;2.40;0.45;;;14.00;99.90;14.10;97844.00;;;;336416;28;83401;-93
2022/11/17 00:55:16;;;;;;;4.43;0.57;;;14.00;99.90;14.10;97849.00;;;;337217;28;90976;-94
2022/11/17 00:55:28;;;;;;;3.95;0.60;;;14.00;99.90;14.00;97848.00;;;;337606;28;84935;-94
2022/11/17 00:55:41;;;;;;;4.75;0.50;;;14.00;99.90;14.10;97856.00;;;;338555;28;92339;-94
2022/11/17 00:55:53;;;;;;;2.63;0.40;;;14.00;99.90;14.10;97852.00;;;;337640;28;84787;-93
2022/11/17 00:56:05;;;;;;;3.40;0.50;;;14.00;99.90;14.10;97848.00;;;;338663;28;90787;-94
2022/11/17 00:56:17;;;;;;;4.90;0.57;;;14.00;99.90;14.20;97861.00;;;;340357;28;83367;-94
2022/11/17 00:56:29;;;;;;;3.53;0.47;;;14.00;99.90;14.10;97856.00;;;;337061;28;89858;-93
2022/11/17 00:56:41;;;;;;;2.58;0.40;;;14.00;99.90;14.20;97861.00;;;;338943;28;84626;-94
2022/11/17 00:56:53;;;;;;;2.17;0.50;;;14.00;99.90;14.10;97872.00;;;;337321;28;90414;-93
2022/11/17 00:57:05;;;;;;;3.38;0.90;;;14.00;99.90;14.10;97860.00;;;;336383;28;84150;-94
2022/11/17 00:57:17;;;;;;;2.80;0.88;;;14.00;99.90;14.20;97863.00;;;;338668;28;90312;-93
2022/11/17 00:57:29;;;;;;;2.50;0.45;;;14.00;99.90;14.20;97864.00;;;;337756;28;83372;-93
2022/11/17 00:57:41;;;;;;;3.05;0.52;;;14.00;99.90;14.20;97872.00;;;;337244;28;92858;-94
2022/11/17 00:57:52;;;;;;;4.10;0.60;;;14.00;99.90;14.10;97869.00;;;;336254;28;84076;-94
2022/11/17 00:58:04;;;;;;;3.65;0.98;;;14.00;99.90;14.10;97869.00;;;;335781;28;92014;-94
2022/11/17 00:58:16;;;;;;;3.78;0.90;;;14.00;99.90;14.20;97866.00;;;;334949;29;83852;-94
2022/11/17 00:58:28;;;;;;;3.60;0.63;;;14.00;99.90;14.20;97866.00;;;;337215;28;91036;-93
2022/11/17 00:58:40;;;;;;;4.57;0.90;;;14.00;99.90;14.20;97869.00;;;;336356;28;83801;-94
2022/11/17 00:58:52;;;;;;;4.30;0.85;;;14.00;99.90;14.20;97873.00;;;;338648;28;91829;-94
2022/11/17 00:59:03;;;;;;;3.30;0.63;;;14.00;99.90;14.20;97870.00;;;;335082;29;84567;-94
2022/11/17 00:59:16;;;;;;;1.27;0.47;;;14.00;99.90;14.10;97859.00;;;;337333;28;92305;-94
2022/11/17 00:59:28;;;;;;;1.88;0.63;;;14.00;99.90;14.10;97863.00;;;;336252;28;83470;-93
2022/11/17 00:59:39;;;;;;;3.97;0.85;;;14.00;99.90;14.20;97862.00;;;;337260;28;93020;-94
2022/11/17 00:59:51;;;;;;;4.45;0.95;;;14.00;99.90;14.10;97864.00;;;;336174;28;84775;-95
2022/11/17 01:00:04;;;;;;;4.68;0.98;;;14.00;99.90;14.20;97870.00;;;;338699;28;90599;-94
2022/11/17 01:00:16;;;;;;;3.47;0.80;;;14.00;99.90;14.10;97864.00;;;;338969;28;83860;-94
2022/11/17 01:00:28;;;;;;;2.72;0.75;;;14.00;99.90;14.10;97870.00;;;;337203;28;91011;-94
2022/11/17 01:00:40;;;;;;;1.65;0.52;;;14.00;99.90;14.20;97878.00;;;;338838;28;84733;-94
2022/11/17 01:00:51;;;;;;;2.15;0.70;;;14.00;99.90;14.10;97873.00;;;;335927;28;90320;-94
2022/11/17 01:01:03;;;;;;;2.60;0.88;;;14.00;99.90;14.10;97862.00;;;;339037;28;84980;-94
2022/11/17 01:01:16;;;;;;;2.92;0.82;;;14.00;99.90;14.10;97870.00;;;;337280;28;92213;-94
2022/11/17 01:01:28;;;;;;;2.15;0.45;;;13.90;99.90;14.20;97865.00;;;;339008;28;83809;-94
2022/11/17 01:01:41;;;;;;;1.70;0.40;;;13.90;99.90;14.20;97876.00;;;;334723;29;91118;-94
2022/11/17 01:01:53;;;;;;;2.15;0.70;;;14.00;99.90;14.10;97880.00;;;;337581;28;84866;-95
2022/11/17 01:02:05;;;;;;;3.10;0.80;;;14.00;99.90;14.00;97881.00;;;;336065;28;92281;-93
2022/11/17 01:02:17;;;;;;;2.70;0.50;;;13.90;99.90;14.10;97869.00;;;;340226;28;85124;-94
2022/11/17 01:02:28;;;;;;;3.22;0.57;;;13.90;99.90;14.10;97889.00;;;;335941;28;90677;-94
2022/11/17 01:02:40;;;;;;;3.03;0.50;;;13.90;99.90;14.10;97880.00;;;;338936;28;84580;-94
2022/11/17 01:02:52;;;;;;;4.95;0.73;;;13.90;99.90;14.20;97888.00;;;;336091;28;90323;-94
2022/11/17 01:03:04;;;;;;;5.00;0.75;;;14.00;99.90;14.10;97878.00;;;;337630;28;83738;-94
2022/11/17 01:03:16;;;;;;;5.82;0.85;;;14.00;99.90;14.20;97878.00;;;;335969;28;91528;-94
2022/11/17 01:03:28;;;;;;;4.25;0.70;;;14.00;99.90;14.10;97871.00;;;;338980;28;84133;-94
2022/11/17 01:03:39;;;;;;;2.60;0.50;;;14.00;99.90;14.10;97872.00;;;;337225;28;91675;-94
2022/11/17 01:04:01;;;;;;;1.77;0.40;;;13.90;99.90;14.20;97870.00;;;;337539;28;83815;-94
2022/11/17 01:04:14;;;;;;;1.83;0.50;;;13.90;99.90;14.20;97875.00;;;;334498;29;91220;-94
2022/11/17 01:04:26;;;;;;;3.25;0.63;;;14.00;99.90;14.20;97881.00;;;;338803;28;84748;-93
2022/11/17 01:04:37;;;;;;;3.66;0.78;;;13.90;99.90;14.10;97885.00;;;;337221;28;92566;-94
2022/11/17 01:04:49;;;;;;;3.42;0.90;;;14.00;99.90;14.10;97873.00;;;;338971;28;84142;-94
2022/11/17 01:05:01;;;;;;;1.40;0.60;;;13.90;99.90;14.20;97872.00;;;;338660;28;90917;-94
2022/11/17 01:05:13;;;;;;;1.42;0.55;;;14.00;99.90;14.20;97872.00;;;;338904;28;83575;-95
2022/11/17 01:05:25;;;;;;;1.80;0.52;;;14.00;99.90;14.20;97866.00;;;;335861;28;91791;-94
2022/11/17 01:05:43;;;;;;;2.22;0.50;;;14.00;99.90;14.20;97877.00;;;;335022;29;84321;-94
2022/11/17 01:05:55;;;;;;;3.03;0.70;;;14.00;99.90;14.10;97868.00;;;;337251;28;91720;-94
2022/11/17 01:06:12;;;;;;;3.38;0.70;;;13.90;99.90;14.10;97877.00;;;;336301;28;82894;-94
2022/11/17 01:06:24;;;;;;;4.28;0.60;;;14.00;99.90;14.10;97871.00;;;;338633;28;91057;-95
2022/11/17 01:06:38;;;;;;;4.75;0.60;;;14.00;99.90;14.10;97871.00;;;;336049;28;84998;-94
2022/11/17 01:06:50;;;;;;;4.13;0.60;;;13.90;99.90;14.10;97860.00;;;;339980;28;91129;-94